Time;durP1;ratioP1;P1;durP2;ratioP2;P2;SDS_P1;SDS_P2;PMS_P1;PMS_P2;Temp;Humidity;BMP_temperature;BMP_pressure;BME280_temperature;BME280_humidity;BME280_pressure;Samples;Min_cycle;Max_cycle;Signal;HPM_P1;HPM_P2
2023/10/12 00:00:52;;;;;;;28.00;12.00;;;;;;;;;;6244247;28;20446;-62
2023/10/12 00:04:11;;;;;;;28.88;11.05;;;;;;;;;;6244814;28;20126;-64
2023/10/12 00:07:17;;;;;;;23.90;10.43;;;;;;;;;;6244400;28;20122;-63
2023/10/12 00:13:20;;;;;;;22.95;10.75;;;;;;;;;;6242845;28;20569;-61
2023/10/12 00:16:21;;;;;;;;;;;;;;;;;;6243676;28;20144;-63
2023/10/12 00:19:23;;;;;;;25.17;9.80;;;;;;;;;;6244819;28;19971;-54
2023/10/12 00:22:24;;;;;;;26.13;10.98;;;;;;;;;;6245714;28;20037;-62
2023/10/12 00:25:25;;;;;;;23.67;10.00;;;;;;;;;;6244399;28;20677;-60
2023/10/12 00:28:37;;;;;;;23.80;10.13;;;;;;;;;;6245190;28;20041;-62
2023/10/12 00:31:41;;;;;;;;;;;;;;;;;;6244122;28;20056;-57
2023/10/12 00:34:46;;;;;;;25.00;9.90;;;;;;;;;;6243799;28;20372;-62
2023/10/12 00:37:46;;;;;;;28.23;10.50;;;;;;;;;;6242895;28;20137;-57
2023/10/12 00:40:58;;;;;;;27.25;9.93;;;;;;;;;;6246754;28;20042;-59
2023/10/12 00:47:12;;;;;;;27.95;10.80;;;;;;;;;;6243697;28;20240;-62
2023/10/12 00:50:14;;;;;;;24.67;9.88;;;;;;;;;;6243353;28;20084;-64
2023/10/12 00:53:22;;;;;;;;;;;;;;;;;;6243378;28;20052;-62
2023/10/12 00:56:24;;;;;;;22.73;10.43;;;;;;;;;;6242543;28;19921;-61
2023/10/12 00:59:27;;;;;;;28.73;9.95;;;;;;;;;;6240692;28;20045;-62
2023/10/12 01:02:33;;;;;;;25.48;10.80;;;;;;;;;;6242923;28;20126;-61
2023/10/12 01:05:37;;;;;;;24.77;10.38;;;;;;;;;;6245833;28;20065;-63
2023/10/12 01:08:46;;;;;;;23.63;9.85;;;;;;;;;;6243538;28;20053;-60
2023/10/12 01:11:57;;;;;;;22.58;10.52;;;;;;;;;;6242795;28;20140;-60
2023/10/12 01:14:58;;;;;;;24.98;10.48;;;;;;;;;;6243095;28;20456;-61
2023/10/12 01:17:58;;;;;;;22.83;10.38;;;;;;;;;;6242177;28;20037;-61
2023/10/12 01:21:00;;;;;;;22.63;10.23;;;;;;;;;;6243399;28;20052;-63
2023/10/12 01:24:12;;;;;;;24.13;10.13;;;;;;;;;;6243489;28;20037;-60
2023/10/12 01:27:13;;;;;;;21.08;10.07;;;;;;;;;;6241666;28;20051;-61
2023/10/12 01:30:21;;;;;;;22.80;9.80;;;;;;;;;;6241981;28;20048;-63
2023/10/12 01:33:22;;;;;;;26.70;10.00;;;;;;;;;;6242687;28;20392;-63
2023/10/12 01:36:23;;;;;;;24.58;10.40;;;;;;;;;;6242661;28;20095;-61
2023/10/12 01:39:28;;;;;;;27.55;10.35;;;;;;;;;;6241936;28;20418;-62
2023/10/12 01:43:02;;;;;;;25.88;9.90;;;;;;;;;;6248923;28;20045;-63
2023/10/12 01:46:01;;;;;;;23.17;9.50;;;;;;;;;;6255384;28;20060;-61
2023/10/12 01:49:01;;;;;;;24.88;10.90;;;;;;;;;;6259346;28;20119;-64
2023/10/12 01:52:03;;;;;;;25.45;10.57;;;;;;;;;;6242794;28;20042;-63
2023/10/12 01:55:28;;;;;;;29.23;10.83;;;;;;;;;;6243270;28;20041;-63
2023/10/12 01:58:28;;;;;;;24.35;9.77;;;;;;;;;;6242376;28;20500;-63
2023/10/12 02:01:33;;;;;;;27.10;10.90;;;;;;;;;;6242970;28;20084;-61
2023/10/12 02:04:39;;;;;;;24.70;9.98;;;;;;;;;;6242134;28;20045;-63
2023/10/12 02:07:40;;;;;;;23.30;10.02;;;;;;;;;;6242667;28;20576;-59
2023/10/12 02:10:54;;;;;;;25.77;9.90;;;;;;;;;;6243054;28;20136;-62
2023/10/12 02:13:55;;;;;;;26.15;10.57;;;;;;;;;;6241855;28;20520;-62
2023/10/12 02:16:56;;;;;;;21.63;10.57;;;;;;;;;;6242316;28;20060;-63
2023/10/12 02:19:57;;;;;;;26.30;12.20;;;;;;;;;;6243188;28;20041;-63
2023/10/12 02:23:01;;;;;;;24.38;11.30;;;;;;;;;;6242179;28;20512;-61
2023/10/12 02:29:25;;;;;;;21.77;10.57;;;;;;;;;;6242971;28;20050;-64
2023/10/12 02:32:25;;;;;;;23.25;10.70;;;;;;;;;;6242800;28;20095;-59
2023/10/12 02:35:36;;;;;;;27.35;12.13;;;;;;;;;;6243122;28;20114;-64
2023/10/12 02:38:36;;;;;;;29.23;11.18;;;;;;;;;;6259505;28;20079;-63
2023/10/12 02:41:37;;;;;;;24.88;10.80;;;;;;;;;;6250170;28;20072;-63
2023/10/12 02:44:44;;;;;;;23.42;10.95;;;;;;;;;;6262313;28;20082;-63
2023/10/12 02:47:47;;;;;;;23.60;10.98;;;;;;;;;;6252793;28;20140;-62
2023/10/12 02:50:57;;;;;;;24.00;11.38;;;;;;;;;;6246863;28;20050;-58
2023/10/12 02:54:02;;;;;;;28.27;11.23;;;;;;;;;;6246628;28;20045;-60
2023/10/12 02:57:04;;;;;;;26.13;11.80;;;;;;;;;;6246304;28;20517;-53
2023/10/12 03:00:20;;;;;;;29.60;11.70;;;;;;;;;;6247188;28;20530;-60
2023/10/12 03:03:33;;;;;;;24.60;11.38;;;;;;;;;;6246693;28;20092;-63
2023/10/12 03:06:45;;;;;;;24.50;11.73;;;;;;;;;;6246672;28;20053;-62
2023/10/12 03:09:51;;;;;;;23.88;11.98;;;;;;;;;;6246383;28;20400;-63
2023/10/12 03:12:54;;;;;;;24.50;11.65;;;;;;;;;;6246321;28;20042;-59
2023/10/12 03:16:03;;;;;;;23.83;11.52;;;;;;;;;;6246829;28;20420;-59
2023/10/12 03:19:46;;;;;;;25.67;12.23;;;;;;;;;;6246669;28;20059;-64
2023/10/12 03:22:34;;;;;;;25.65;11.13;;;;;;;;;;6243982;28;20064;-60
2023/10/12 03:25:43;;;;;;;26.58;13.05;;;;;;;;;;6246208;28;20060;-58
2023/10/12 03:28:46;;;;;;;28.83;12.13;;;;;;;;;;6247075;28;20044;-61
2023/10/12 03:34:54;;;;;;;25.15;12.70;;;;;;;;;;6246096;28;20041;-61
2023/10/12 03:38:01;;;;;;;27.25;13.30;;;;;;;;;;6246769;28;20215;-59
2023/10/12 03:47:55;;;;;;;27.80;13.82;;;;;;;;;;6244617;28;20084;-62
2023/10/12 03:50:59;;;;;;;30.52;12.90;;;;;;;;;;6244906;28;20034;-57
2023/10/12 03:54:11;;;;;;;31.05;14.30;;;;;;;;;;6245875;28;20124;-64
2023/10/12 03:57:26;;;;;;;35.70;13.77;;;;;;;;;;6244704;28;20515;-56
2023/10/12 04:00:40;;;;;;;32.80;13.88;;;;;;;;;;6242545;28;20416;-55
2023/10/12 04:03:43;;;;;;;26.00;13.23;;;;;;;;;;6244659;28;20045;-63
2023/10/12 04:10:13;;;;;;;31.75;13.70;;;;;;;;;;6243643;28;20053;-64
2023/10/12 04:16:39;;;;;;;31.40;14.57;;;;;;;;;;6266850;28;20063;-53
2023/10/12 04:19:44;;;;;;;32.28;15.23;;;;;;;;;;6265238;28;20428;-51
2023/10/12 04:25:49;;;;;;;31.58;14.60;;;;;;;;;;6264537;28;20561;-54
2023/10/12 04:28:55;;;;;;;;;;;;;;;;;;6266079;28;20045;-56
2023/10/12 04:32:09;;;;;;;31.48;15.07;;;;;;;;;;6264840;28;19954;-50
2023/10/12 04:35:17;;;;;;;31.45;15.05;;;;;;;;;;6263272;28;20052;-53
2023/10/12 04:38:46;;;;;;;35.55;15.27;;;;;;;;;;6263431;28;20132;-55
2023/10/12 04:42:00;;;;;;;31.25;14.93;;;;;;;;;;6258062;28;20049;-54
2023/10/12 04:45:23;;;;;;;33.60;15.65;;;;;;;;;;6259532;28;20041;-54
2023/10/12 04:48:22;;;;;;;29.83;15.40;;;;;;;;;;6252220;28;20037;-52
2023/10/12 04:51:30;;;;;;;31.23;15.47;;;;;;;;;;6264899;28;20481;-52
2023/10/12 04:54:31;;;;;;;36.00;14.63;;;;;;;;;;6265600;28;20041;-52
2023/10/12 04:57:34;;;;;;;30.42;15.35;;;;;;;;;;6263408;28;20111;-54
2023/10/12 05:00:48;;;;;;;35.05;14.85;;;;;;;;;;6262551;28;20059;-54
2023/10/12 05:04:05;;;;;;;32.60;15.05;;;;;;;;;;6265536;28;20047;-54
2023/10/12 05:10:15;;;;;;;31.42;15.07;;;;;;;;;;6266643;28;20063;-54
2023/10/12 05:13:19;;;;;;;31.85;15.30;;;;;;;;;;6263834;28;20403;-54
2023/10/12 05:16:26;;;;;;;30.13;15.65;;;;;;;;;;6265296;28;20064;-52
2023/10/12 05:19:27;;;;;;;29.83;14.52;;;;;;;;;;6263365;28;20036;-55
2023/10/12 05:22:28;;;;;;;31.50;14.55;;;;;;;;;;6265012;28;20051;-54
2023/10/12 05:28:57;;;;;;;29.67;14.70;;;;;;;;;;6261942;28;20072;-52
2023/10/12 05:32:18;;;;;;;31.00;15.73;;;;;;;;;;6263009;28;20049;-53
2023/10/12 05:35:45;;;;;;;30.55;14.55;;;;;;;;;;6264397;28;20540;-53
2023/10/12 05:38:50;;;;;;;34.78;14.73;;;;;;;;;;6265058;28;20045;-54
2023/10/12 05:41:56;;;;;;;27.38;15.10;;;;;;;;;;6263537;28;20052;-53
2023/10/12 05:45:18;;;;;;;34.28;15.82;;;;;;;;;;6263478;28;20045;-53
2023/10/12 05:48:19;;;;;;;31.73;14.40;;;;;;;;;;6263511;28;20091;-54
2023/10/12 05:51:21;;;;;;;44.35;16.48;;;;;;;;;;6264084;28;20045;-54
2023/10/12 05:54:23;;;;;;;;;;;;;;;;;;6264531;28;20045;-56
2023/10/12 05:57:27;;;;;;;43.65;16.13;;;;;;;;;;6264921;28;20024;-54
2023/10/12 06:00:36;;;;;;;31.25;14.93;;;;;;;;;;6264584;28;20049;-52
2023/10/12 06:03:39;;;;;;;29.70;15.07;;;;;;;;;;6264688;28;20459;-53
2023/10/12 06:06:41;;;;;;;27.98;14.75;;;;;;;;;;6264253;28;20041;-55
2023/10/12 06:09:42;;;;;;;37.28;15.60;;;;;;;;;;6261105;28;20076;-51
2023/10/12 06:12:43;;;;;;;27.15;14.60;;;;;;;;;;6261819;28;20554;-51
2023/10/12 06:15:49;;;;;;;31.45;14.25;;;;;;;;;;6264265;28;20049;-56
2023/10/12 06:18:49;;;;;;;32.72;14.57;;;;;;;;;;6261159;28;20154;-55
2023/10/12 06:21:53;;;;;;;30.80;14.93;;;;;;;;;;6264033;28;20068;-53
2023/10/12 06:24:54;;;;;;;31.25;13.85;;;;;;;;;;6260385;28;20143;-54
2023/10/12 06:27:55;;;;;;;29.70;14.10;;;;;;;;;;6259422;28;20059;-55
2023/10/12 06:30:56;;;;;;;27.55;13.65;;;;;;;;;;6261792;28;20048;-55
2023/10/12 06:34:04;;;;;;;32.37;13.67;;;;;;;;;;6259588;28;20052;-54
2023/10/12 06:37:30;;;;;;;28.27;13.07;;;;;;;;;;6260695;28;20041;-55
2023/10/12 06:40:37;;;;;;;35.60;14.25;;;;;;;;;;6259104;28;20045;-57
2023/10/12 06:46:46;;;;;;;27.80;12.75;;;;;;;;;;6260569;28;20061;-55
2023/10/12 06:49:47;;;;;;;27.40;13.23;;;;;;;;;;6263161;28;20047;-56
2023/10/12 06:52:48;;;;;;;25.45;11.57;;;;;;;;;;6262753;28;20364;-51
2023/10/12 06:55:57;;;;;;;30.30;13.68;;;;;;;;;;6262418;28;20052;-55
2023/10/12 07:02:13;;;;;;;29.95;12.32;;;;;;;;;;6261827;28;20055;-53
2023/10/12 07:05:19;;;;;;;30.13;13.07;;;;;;;;;;6263461;28;20482;-54
2023/10/12 07:08:21;;;;;;;21.85;12.20;;;;;;;;;;6261145;28;20079;-53
2023/10/12 07:11:22;;;;;;;26.90;11.95;;;;;;;;;;6259945;28;20559;-53
2023/10/12 07:14:31;;;;;;;29.58;13.73;;;;;;;;;;6259466;28;20049;-53
2023/10/12 07:17:32;;;;;;;31.20;11.73;;;;;;;;;;6261757;28;20045;-54
2023/10/12 07:23:36;;;;;;;23.70;11.17;;;;;;;;;;6257348;28;20049;-52
2023/10/12 07:26:36;;;;;;;26.55;11.65;;;;;;;;;;6264071;28;20095;-54
2023/10/12 07:29:44;;;;;;;24.75;11.10;;;;;;;;;;6266184;28;20061;-52
2023/10/12 07:32:54;;;;;;;26.40;11.20;;;;;;;;;;6265725;28;20040;-55
2023/10/12 07:35:56;;;;;;;23.88;11.48;;;;;;;;;;6260277;28;20415;-55
2023/10/12 07:39:14;;;;;;;26.88;11.25;;;;;;;;;;6265993;28;20102;-56
2023/10/12 07:42:25;;;;;;;24.50;10.85;;;;;;;;;;6265221;28;20068;-55
2023/10/12 07:45:28;;;;;;;26.00;10.90;;;;;;;;;;6260563;28;20052;-53
2023/10/12 07:48:31;;;;;;;22.88;10.55;;;;;;;;;;6265680;28;20051;-55
2023/10/12 07:51:53;;;;;;;27.40;10.55;;;;;;;;;;6262684;28;20120;-55
2023/10/12 07:54:57;;;;;;;22.20;10.77;;;;;;;;;;6258411;28;20048;-54
2023/10/12 07:57:57;;;;;;;22.92;10.32;;;;;;;;;;6264615;28;20140;-57
2023/10/12 08:01:21;;;;;;;22.27;10.57;;;;;;;;;;6264733;28;20098;-53
2023/10/12 08:04:31;;;;;;;22.05;10.98;;;;;;;;;;6264165;28;20056;-53
2023/10/12 08:07:55;;;;;;;24.25;10.27;;;;;;;;;;6264282;28;20051;-54
2023/10/12 08:10:59;;;;;;;20.70;10.60;;;;;;;;;;6265280;28;20076;-57
2023/10/12 08:14:19;;;;;;;24.13;9.80;;;;;;;;;;6261328;28;20488;-54
2023/10/12 08:17:33;;;;;;;25.45;9.80;;;;;;;;;;6264950;28;20059;-55
2023/10/12 08:20:53;;;;;;;28.38;10.57;;;;;;;;;;6264462;28;20067;-55
2023/10/12 08:24:01;;;;;;;29.25;10.10;;;;;;;;;;6264715;28;20630;-53
2023/10/12 08:27:05;;;;;;;22.17;10.57;;;;;;;;;;6262555;28;20045;-54
2023/10/12 08:30:23;;;;;;;23.30;9.43;;;;;;;;;;6264123;28;20537;-51
2023/10/12 08:33:48;;;;;;;29.60;10.60;;;;;;;;;;6263070;28;20079;-54
2023/10/12 08:43:09;;;;;;;21.63;9.50;;;;;;;;;;6263624;28;20045;-53
2023/10/12 08:46:12;;;;;;;26.55;10.07;;;;;;;;;;6262319;28;20048;-53
2023/10/12 08:52:34;;;;;;;28.80;10.18;;;;;;;;;;6258810;28;20044;-53
2023/10/12 08:55:36;;;;;;;24.80;10.25;;;;;;;;;;6263299;28;20053;-55
2023/10/12 08:58:48;;;;;;;23.63;10.75;;;;;;;;;;6263233;28;20045;-55
2023/10/12 09:01:51;;;;;;;27.00;9.75;;;;;;;;;;6262738;28;20511;-55
2023/10/12 09:04:53;;;;;;;25.00;9.80;;;;;;;;;;6262670;28;20055;-59
2023/10/12 09:14:18;;;;;;;23.33;9.97;;;;;;;;;;6265037;28;20044;-55
2023/10/12 09:17:27;;;;;;;24.55;10.10;;;;;;;;;;6261984;28;20052;-54
2023/10/12 09:20:29;;;;;;;25.50;9.90;;;;;;;;;;6263749;28;20068;-53
2023/10/12 09:26:38;;;;;;;25.40;11.52;;;;;;;;;;6261311;28;20070;-54
2023/10/12 09:29:57;;;;;;;32.30;11.73;;;;;;;;;;6263000;28;20044;-57
2023/10/12 09:33:10;;;;;;;33.33;12.10;;;;;;;;;;6261616;28;20135;-57
2023/10/12 09:36:11;;;;;;;30.67;10.70;;;;;;;;;;6256970;28;20055;-61
2023/10/12 09:39:14;;;;;;;30.77;10.53;;;;;;;;;;6261572;28;20049;-55
2023/10/12 09:42:22;;;;;;;29.92;11.05;;;;;;;;;;6259704;28;20119;-56
2023/10/12 09:45:24;;;;;;;30.70;10.40;;;;;;;;;;6261168;28;20041;-55
2023/10/12 09:48:29;;;;;;;27.50;9.68;;;;;;;;;;6262671;28;20043;-57
2023/10/12 09:51:35;;;;;;;29.15;11.15;;;;;;;;;;6259620;28;20044;-54
2023/10/12 09:55:07;;;;;;;27.15;9.65;;;;;;;;;;6261930;28;20059;-53
2023/10/12 09:58:22;;;;;;;30.95;10.48;;;;;;;;;;6262045;28;20045;-53
2023/10/12 10:01:45;;;;;;;23.02;9.80;;;;;;;;;;6263081;28;20055;-53
2023/10/12 10:04:46;;;;;;;25.80;10.02;;;;;;;;;;6260351;28;20381;-55
2023/10/12 10:07:55;;;;;;;24.52;9.10;;;;;;;;;;6260366;28;20492;-55
2023/10/12 10:10:57;;;;;;;28.17;9.20;;;;;;;;;;6262525;28;20060;-55
2023/10/12 10:13:58;;;;;;;24.20;9.82;;;;;;;;;;6261413;28;20044;-58
2023/10/12 10:16:59;;;;;;;26.87;10.70;;;;;;;;;;6261540;28;20060;-52
2023/10/12 10:20:03;;;;;;;;;;;;;;;;;;6260924;28;20135;-52
2023/10/12 10:23:07;;;;;;;22.70;9.43;;;;;;;;;;6262120;28;20700;-52
2023/10/12 10:26:19;;;;;;;25.25;9.93;;;;;;;;;;6262032;28;20053;-54
2023/10/12 10:29:20;;;;;;;26.50;10.07;;;;;;;;;;6260251;28;20053;-59
2023/10/12 10:32:29;;;;;;;23.58;9.32;;;;;;;;;;6262796;28;20488;-55
2023/10/12 10:36:24;;;;;;;28.90;10.90;;;;;;;;;;6255582;28;20053;-56
2023/10/12 10:39:29;;;;;;;26.42;10.27;;;;;;;;;;6260876;28;20045;-56
2023/10/12 10:42:31;;;;;;;24.52;10.27;;;;;;;;;;6258639;28;20040;-57
2023/10/12 10:45:36;;;;;;;31.25;10.82;;;;;;;;;;6257331;28;20041;-56
2023/10/12 10:48:38;;;;;;;29.20;10.75;;;;;;;;;;6262287;28;20048;-56
2023/10/12 10:51:42;;;;;;;28.70;10.38;;;;;;;;;;6261211;28;20494;-56
2023/10/12 10:54:59;;;;;;;29.10;10.10;;;;;;;;;;6260941;28;20513;-56
2023/10/12 10:58:00;;;;;;;31.05;10.73;;;;;;;;;;6264204;28;20061;-57
2023/10/12 11:01:05;;;;;;;24.57;11.37;;;;;;;;;;6265211;28;20114;-60
2023/10/12 11:04:17;;;;;;;28.65;11.15;;;;;;;;;;6265422;28;20045;-57
2023/10/12 11:07:18;;;;;;;24.00;11.02;;;;;;;;;;6266488;28;20045;-58
2023/10/12 11:11:14;;;;;;;35.50;12.23;;;;;;;;;;6267711;28;20459;-58
2023/10/12 11:13:44;;;;;;;26.92;11.60;;;;;;;;;;6255045;28;20480;-58
2023/10/12 11:16:48;;;;;;;32.58;12.05;;;;;;;;;;6264907;28;20052;-59
2023/10/12 11:19:50;;;;;;;29.83;10.93;;;;;;;;;;6264843;28;20456;-58
2023/10/12 11:22:51;;;;;;;;;;;;;;;;;;6264590;28;20045;-57
2023/10/12 11:26:04;;;;;;;29.50;11.60;;;;;;;;;;6261610;28;21715;-58
2023/10/12 11:29:06;;;;;;;29.92;11.05;;;;;;;;;;6261109;28;20445;-58
2023/10/12 11:32:09;;;;;;;30.92;11.10;;;;;;;;;;6260221;28;20053;-58
2023/10/12 11:35:13;;;;;;;23.58;11.32;;;;;;;;;;6265128;28;20045;-61
2023/10/12 11:38:17;;;;;;;27.92;10.90;;;;;;;;;;6263056;28;20045;-57
2023/10/12 11:41:18;;;;;;;33.53;11.32;;;;;;;;;;6263206;28;20052;-58
2023/10/12 11:44:31;;;;;;;29.57;11.50;;;;;;;;;;6261053;28;20044;-59
2023/10/12 11:47:39;;;;;;;35.03;11.27;;;;;;;;;;6260723;28;20534;-57
2023/10/12 11:50:39;;;;;;;28.27;11.40;;;;;;;;;;6262677;28;20053;-58
2023/10/12 11:53:41;;;;;;;29.70;12.03;;;;;;;;;;6265806;28;20133;-58
2023/10/12 11:56:44;;;;;;;30.67;11.60;;;;;;;;;;6257547;28;20468;-58
2023/10/12 11:59:45;;;;;;;27.60;11.65;;;;;;;;;;6262529;28;20043;-58
2023/10/12 12:02:46;;;;;;;28.87;11.50;;;;;;;;;;6265366;28;20057;-58
2023/10/12 12:05:52;;;;;;;28.88;12.13;;;;;;;;;;6264765;28;20600;-57
2023/10/12 12:08:59;;;;;;;24.70;11.15;;;;;;;;;;6260118;28;20310;-55
2023/10/12 12:12:00;;;;;;;28.95;11.82;;;;;;;;;;6261693;28;20041;-57
2023/10/12 12:15:01;;;;;;;32.83;12.47;;;;;;;;;;6264747;28;20400;-59
2023/10/12 12:18:09;;;;;;;29.17;11.80;;;;;;;;;;6262883;28;20093;-58
2023/10/12 12:21:15;;;;;;;28.85;10.98;;;;;;;;;;6259825;28;20483;-58
2023/10/12 12:24:22;;;;;;;26.95;11.70;;;;;;;;;;6263791;28;20045;-58
2023/10/12 12:27:37;;;;;;;26.00;11.50;;;;;;;;;;6264292;28;20798;-59
2023/10/12 12:30:46;;;;;;;28.67;12.18;;;;;;;;;;6262118;28;20613;-59
2023/10/12 12:33:46;;;;;;;31.35;12.77;;;;;;;;;;6263649;28;20057;-58
2023/10/12 12:36:48;;;;;;;34.27;13.40;;;;;;;;;;6262727;28;20134;-58
2023/10/12 12:43:11;;;;;;;29.08;12.48;;;;;;;;;;6261495;28;20037;-58
2023/10/12 12:46:12;;;;;;;34.50;13.83;;;;;;;;;;6264355;28;20037;-58
2023/10/12 12:49:13;;;;;;;34.73;13.00;;;;;;;;;;6263149;28;20566;-58
2023/10/12 12:52:17;;;;;;;33.20;12.07;;;;;;;;;;6261119;28;20037;-58
2023/10/12 12:55:18;;;;;;;32.40;12.88;;;;;;;;;;6255657;28;20123;-57
2023/10/12 12:58:19;;;;;;;30.50;12.50;;;;;;;;;;6263467;28;20040;-58
2023/10/12 13:01:23;;;;;;;33.38;12.23;;;;;;;;;;6261547;28;20067;-58
2023/10/12 13:04:26;;;;;;;31.55;12.70;;;;;;;;;;6258393;28;20378;-57
2023/10/12 13:07:28;;;;;;;27.05;12.15;;;;;;;;;;6259877;28;20047;-58
2023/10/12 13:10:29;;;;;;;32.70;12.70;;;;;;;;;;6256153;28;20516;-57
2023/10/12 13:13:35;;;;;;;26.38;12.80;;;;;;;;;;6257353;28;20072;-58
2023/10/12 13:16:35;;;;;;;28.90;12.60;;;;;;;;;;6253035;28;20087;-58
2023/10/12 13:19:36;;;;;;;32.27;13.40;;;;;;;;;;6248010;28;20052;-58
2023/10/12 13:22:37;;;;;;;39.57;13.50;;;;;;;;;;6251449;28;20045;-59
2023/10/12 13:25:37;;;;;;;35.72;13.20;;;;;;;;;;6247984;28;20053;-58
2023/10/12 13:28:40;;;;;;;32.33;12.57;;;;;;;;;;6250287;28;20061;-58
2023/10/12 13:31:41;;;;;;;27.00;11.93;;;;;;;;;;6251080;28;20056;-58
2023/10/12 13:34:41;;;;;;;27.43;12.57;;;;;;;;;;6249265;28;20503;-59
2023/10/12 13:37:42;;;;;;;26.57;13.30;;;;;;;;;;6251924;28;20083;-58
2023/10/12 13:40:49;;;;;;;26.20;13.43;;;;;;;;;;6253110;28;20048;-58
2023/10/12 13:43:49;;;;;;;34.83;13.32;;;;;;;;;;6246280;28;20049;-58
2023/10/12 13:46:50;;;;;;;27.77;12.93;;;;;;;;;;6253145;28;20047;-56
2023/10/12 13:49:53;;;;;;;35.03;13.40;;;;;;;;;;6251214;28;20388;-58
2023/10/12 13:52:54;;;;;;;30.92;13.75;;;;;;;;;;6251534;28;20049;-58
2023/10/12 13:55:56;;;;;;;36.33;14.50;;;;;;;;;;6251314;28;20431;-56
2023/10/12 13:58:59;;;;;;;28.27;13.32;;;;;;;;;;6252697;28;20060;-56
2023/10/12 14:02:05;;;;;;;36.97;14.88;;;;;;;;;;6250727;28;20466;-57
2023/10/12 14:05:08;;;;;;;31.70;13.48;;;;;;;;;;6250375;28;20045;-56
2023/10/12 14:08:10;;;;;;;33.35;15.10;;;;;;;;;;6250358;28;20049;-58
2023/10/12 14:11:15;;;;;;;35.47;14.85;;;;;;;;;;6250182;28;20126;-56
2023/10/12 14:14:15;;;;;;;28.58;14.82;;;;;;;;;;6250966;28;20299;-57
2023/10/12 14:17:16;;;;;;;34.03;15.27;;;;;;;;;;6251137;28;20049;-60
2023/10/12 14:20:20;;;;;;;45.93;17.33;;;;;;;;;;6253550;28;20053;-61
2023/10/12 14:23:25;;;;;;;32.47;14.88;;;;;;;;;;6253018;28;20408;-59
2023/10/12 14:26:26;;;;;;;36.78;15.57;;;;;;;;;;6252239;28;20483;-58
2023/10/12 14:29:29;;;;;;;35.43;15.93;;;;;;;;;;6254508;28;20075;-58
2023/10/12 14:32:30;;;;;;;36.38;15.52;;;;;;;;;;6256863;28;20425;-56
2023/10/12 14:35:39;;;;;;;38.63;15.90;;;;;;;;;;6258800;28;20411;-56
2023/10/12 14:38:44;;;;;;;36.58;15.50;;;;;;;;;;6260300;28;20419;-55
2023/10/12 14:41:48;;;;;;;38.67;16.00;;;;;;;;;;6260580;28;20053;-59
2023/10/12 14:44:51;;;;;;;32.60;15.93;;;;;;;;;;6259054;28;20055;-59
2023/10/12 14:47:52;;;;;;;35.35;15.80;;;;;;;;;;6260391;28;21408;-58
2023/10/12 14:51:12;;;;;;;40.43;16.13;;;;;;;;;;6259573;28;20167;-57
2023/10/12 14:54:14;;;;;;;37.15;16.40;;;;;;;;;;6259150;28;20044;-58
2023/10/12 14:57:16;;;;;;;37.13;16.50;;;;;;;;;;6259690;28;20044;-57
2023/10/12 15:00:23;;;;;;;34.47;15.73;;;;;;;;;;6260157;28;20040;-58
2023/10/12 15:03:26;;;;;;;36.35;17.38;;;;;;;;;;6260228;28;20063;-59
2023/10/12 15:06:31;;;;;;;41.50;18.42;;;;;;;;;;6259931;28;20048;-58
2023/10/12 15:09:35;;;;;;;39.28;19.02;;;;;;;;;;6258699;28;20394;-58
2023/10/12 15:12:37;;;;;;;40.60;17.98;;;;;;;;;;6260316;28;20063;-60
2023/10/12 15:15:38;;;;;;;;;;;;;;;;;;6259955;28;20549;-59
2023/10/12 15:18:42;;;;;;;36.97;16.63;;;;;;;;;;6259032;28;20292;-59
2023/10/12 15:21:45;;;;;;;40.20;18.52;;;;;;;;;;6260621;28;20041;-58
2023/10/12 15:24:45;;;;;;;39.33;17.50;;;;;;;;;;6259318;28;20056;-59
2023/10/12 15:27:46;;;;;;;40.88;18.80;;;;;;;;;;6254185;28;20500;-60
2023/10/12 15:30:46;;;;;;;39.07;18.53;;;;;;;;;;6260293;28;20063;-58
2023/10/12 15:33:50;;;;;;;37.65;17.83;;;;;;;;;;6259284;28;20136;-60
2023/10/12 15:36:50;;;;;;;42.10;17.50;;;;;;;;;;6260260;28;20060;-59
2023/10/12 15:39:51;;;;;;;34.78;16.98;;;;;;;;;;6258649;28;21312;-62
2023/10/12 15:42:58;;;;;;;39.30;18.35;;;;;;;;;;6259157;28;20056;-59
2023/10/12 15:46:07;;;;;;;41.97;18.55;;;;;;;;;;6257054;28;20061;-60
2023/10/12 15:49:08;;;;;;;41.60;18.65;;;;;;;;;;6259424;28;20066;-59
2023/10/12 15:52:09;;;;;;;37.67;19.35;;;;;;;;;;6259751;28;20055;-60
2023/10/12 15:55:14;;;;;;;44.75;19.23;;;;;;;;;;6257589;28;20045;-58
2023/10/12 15:58:15;;;;;;;44.17;20.27;;;;;;;;;;6260026;28;20450;-60
2023/10/12 16:01:17;;;;;;;41.17;19.50;;;;;;;;;;6259317;28;20444;-60
2023/10/12 16:04:19;;;;;;;32.05;16.77;;;;;;;;;;6258523;28;20044;-60
2023/10/12 16:07:20;;;;;;;39.55;18.50;;;;;;;;;;6257712;28;20508;-66
2023/10/12 16:10:21;;;;;;;38.30;18.23;;;;;;;;;;6256843;28;20500;-62
2023/10/12 16:13:22;;;;;;;43.08;19.90;;;;;;;;;;6258715;28;20049;-63
2023/10/12 16:16:24;;;;;;;44.63;20.58;;;;;;;;;;6258146;28;20393;-60
2023/10/12 16:19:24;;;;;;;51.33;22.03;;;;;;;;;;6272194;28;20132;-59
2023/10/12 16:22:29;;;;;;;60.10;23.77;;;;;;;;;;6258746;28;20612;-63
2023/10/12 16:25:30;;;;;;;52.00;24.67;;;;;;;;;;6256241;28;20051;-61
2023/10/12 16:28:31;;;;;;;48.03;22.52;;;;;;;;;;6257674;28;20424;-62
2023/10/12 16:31:37;;;;;;;47.38;22.73;;;;;;;;;;6257667;28;20060;-65
2023/10/12 16:34:38;;;;;;;58.90;25.33;;;;;;;;;;6256767;28;20148;-59
2023/10/12 16:37:38;;;;;;;58.30;25.30;;;;;;;;;;6257956;28;20057;-64
2023/10/12 16:40:39;;;;;;;43.58;21.40;;;;;;;;;;6257968;28;20493;-63
2023/10/12 16:43:40;;;;;;;47.33;20.92;;;;;;;;;;6257201;28;20044;-58
2023/10/12 16:46:40;;;;;;;46.75;21.98;;;;;;;;;;6255803;28;20045;-58
2023/10/12 16:49:41;;;;;;;42.97;20.63;;;;;;;;;;6253943;28;20409;-59
2023/10/12 16:52:44;;;;;;;54.03;22.70;;;;;;;;;;6250474;28;20061;-60
2023/10/12 16:55:45;;;;;;;42.15;20.33;;;;;;;;;;6252258;28;20794;-59
2023/10/12 16:58:46;;;;;;;55.73;23.87;;;;;;;;;;6253957;28;20062;-59
2023/10/12 17:01:46;;;;;;;51.58;22.05;;;;;;;;;;6255664;28;20068;-59
2023/10/12 17:04:50;;;;;;;46.00;20.15;;;;;;;;;;6252356;28;20075;-59
2023/10/12 17:07:52;;;;;;;42.22;19.08;;;;;;;;;;6250897;28;20051;-60
2023/10/12 17:10:53;;;;;;;42.83;19.70;;;;;;;;;;6251925;28;20053;-59
2023/10/12 17:13:53;;;;;;;38.00;18.77;;;;;;;;;;6251366;28;20057;-59
2023/10/12 17:16:55;;;;;;;45.05;20.10;;;;;;;;;;6253912;28;20299;-57
2023/10/12 17:19:55;;;;;;;46.92;20.27;;;;;;;;;;6253323;28;20115;-58
2023/10/12 17:22:56;;;;;;;43.47;19.17;;;;;;;;;;6253884;28;20140;-58
2023/10/12 17:25:58;;;;;;;38.78;18.48;;;;;;;;;;6251302;28;20059;-58
2023/10/12 17:28:59;;;;;;;41.00;18.85;;;;;;;;;;6250273;28;20045;-59
2023/10/12 17:32:02;;;;;;;37.87;18.67;;;;;;;;;;6253806;28;20488;-60
2023/10/12 17:35:11;;;;;;;43.05;17.90;;;;;;;;;;6251941;28;20053;-58
2023/10/12 17:38:12;;;;;;;44.25;18.52;;;;;;;;;;6248951;28;20705;-56
2023/10/12 17:41:18;;;;;;;36.35;17.98;;;;;;;;;;6246877;28;20040;-59
2023/10/12 17:44:19;;;;;;;41.30;18.65;;;;;;;;;;6251109;28;20555;-58
2023/10/12 17:47:19;;;;;;;51.38;19.75;;;;;;;;;;6254617;28;20072;-58
2023/10/12 17:50:20;;;;;;;45.72;19.13;;;;;;;;;;6251582;28;20053;-59
2023/10/12 17:53:21;;;;;;;37.97;17.35;;;;;;;;;;6250869;28;20056;-59
2023/10/12 17:56:22;;;;;;;41.50;19.50;;;;;;;;;;6248770;28;20321;-59
2023/10/12 17:59:23;;;;;;;39.80;17.60;;;;;;;;;;6252131;28;20553;-60
2023/10/12 18:02:23;;;;;;;40.30;17.98;;;;;;;;;;6251845;28;20045;-58
2023/10/12 18:05:27;;;;;;;37.20;17.23;;;;;;;;;;6248645;28;20849;-59
2023/10/12 18:08:27;;;;;;;47.65;19.10;;;;;;;;;;6251398;28;20048;-60
2023/10/12 18:11:28;;;;;;;44.17;19.33;;;;;;;;;;6251054;28;20071;-59
2023/10/12 18:14:30;;;;;;;46.17;19.30;;;;;;;;;;6251418;28;20399;-68
2023/10/12 18:17:31;;;;;;;45.88;20.02;;;;;;;;;;6253449;28;20055;-61
2023/10/12 18:20:31;;;;;;;48.38;21.70;;;;;;;;;;6254629;28;20045;-60
2023/10/12 18:23:32;;;;;;;48.85;22.08;;;;;;;;;;6255530;28;20068;-60
2023/10/12 18:26:34;;;;;;;53.90;22.48;;;;;;;;;;6255049;28;20526;-64
2023/10/12 18:29:36;;;;;;;57.28;22.98;;;;;;;;;;6255476;28;20053;-59
2023/10/12 18:32:36;;;;;;;56.38;23.73;;;;;;;;;;6254902;28;20500;-60
2023/10/12 18:35:37;;;;;;;54.83;23.67;;;;;;;;;;6254350;28;20148;-64
2023/10/12 18:38:42;;;;;;;52.03;22.80;;;;;;;;;;6249911;28;20126;-63
2023/10/12 18:41:44;;;;;;;58.08;25.20;;;;;;;;;;6252756;28;20144;-62
2023/10/12 18:44:45;;;;;;;56.40;26.10;;;;;;;;;;6250398;28;20130;-62
2023/10/12 18:47:48;;;;;;;55.30;25.73;;;;;;;;;;6253232;28;20512;-56
2023/10/12 18:51:14;;;;;;;59.08;25.08;;;;;;;;;;6253146;28;20060;-57
2023/10/12 18:54:15;;;;;;;57.72;24.60;;;;;;;;;;6250887;28;20053;-61
2023/10/12 18:57:16;;;;;;;50.35;22.95;;;;;;;;;;6254476;28;20468;-60
2023/10/12 19:00:18;;;;;;;53.15;23.20;;;;;;;;;;6254037;28;20052;-58
2023/10/12 19:03:19;;;;;;;50.10;21.92;;;;;;;;;;6253095;28;21688;-60
2023/10/12 19:06:19;;;;;;;49.10;21.23;;;;;;;;;;6250605;28;20551;-59
2023/10/12 19:09:21;;;;;;;46.33;20.48;;;;;;;;;;6252422;28;20045;-60